sensor_id;sensor_type;location;lat;lon;timestamp;P1;durP1;ratioP1;P2;durP2;ratioP2
35959;SDS011;22043;50.970;7.192;2023-08-20T00:00:10;7.95;;;4.30;;
35959;SDS011;22043;50.970;7.192;2023-08-20T00:02:40;9.52;;;4.00;;
35959;SDS011;22043;50.970;7.192;2023-08-20T00:05:07;7.13;;;4.38;;
35959;SDS011;22043;50.970;7.192;2023-08-20T00:07:34;9.27;;;4.40;;
35959;SDS011;22043;50.970;7.192;2023-08-20T00:10:00;9.38;;;4.60;;
35959;SDS011;22043;50.970;7.192;2023-08-20T00:12:25;9.95;;;4.47;;
35959;SDS011;22043;50.970;7.192;2023-08-20T00:14:55;7.13;;;3.72;;
35959;SDS011;22043;50.970;7.192;2023-08-20T00:17:30;8.10;;;4.22;;
35959;SDS011;22043;50.970;7.192;2023-08-20T00:19:57;6.95;;;4.18;;
35959;SDS011;22043;50.970;7.192;2023-08-20T00:22:23;10.38;;;4.50;;
35959;SDS011;22043;50.970;7.192;2023-08-20T00:24:49;7.50;;;4.20;;
35959;SDS011;22043;50.970;7.192;2023-08-20T00:27:18;12.57;;;4.00;;
35959;SDS011;22043;50.970;7.192;2023-08-20T00:29:44;8.15;;;3.90;;
35959;SDS011;22043;50.970;7.192;2023-08-20T00:32:09;7.97;;;4.55;;
35959;SDS011;22043;50.970;7.192;2023-08-20T00:34:35;8.65;;;4.00;;
35959;SDS011;22043;50.970;7.192;2023-08-20T00:37:01;8.95;;;4.50;;
35959;SDS011;22043;50.970;7.192;2023-08-20T00:39:28;10.07;;;4.75;;
35959;SDS011;22043;50.970;7.192;2023-08-20T00:41:58;9.93;;;4.95;;
35959;SDS011;22043;50.970;7.192;2023-08-20T00:44:25;8.63;;;4.38;;
35959;SDS011;22043;50.970;7.192;2023-08-20T00:46:51;6.68;;;4.03;;
35959;SDS011;22043;50.970;7.192;2023-08-20T00:49:17;7.32;;;4.22;;
35959;SDS011;22043;50.970;7.192;2023-08-20T00:51:44;8.38;;;5.03;;
35959;SDS011;22043;50.970;7.192;2023-08-20T00:54:12;9.27;;;4.57;;
35959;SDS011;22043;50.970;7.192;2023-08-20T00:56:38;8.00;;;5.25;;
35959;SDS011;22043;50.970;7.192;2023-08-20T00:59:04;9.00;;;4.40;;
35959;SDS011;22043;50.970;7.192;2023-08-20T01:01:31;10.88;;;5.18;;
35959;SDS011;22043;50.970;7.192;2023-08-20T01:03:57;8.23;;;4.47;;
35959;SDS011;22043;50.970;7.192;2023-08-20T01:08:57;8.13;;;4.68;;
35959;SDS011;22043;50.970;7.192;2023-08-20T01:11:40;6.13;;;4.03;;
35959;SDS011;22043;50.970;7.192;2023-08-20T01:14:16;7.05;;;4.47;;
35959;SDS011;22043;50.970;7.192;2023-08-20T01:16:43;8.00;;;4.53;;
35959;SDS011;22043;50.970;7.192;2023-08-20T01:19:10;9.10;;;4.13;;
35959;SDS011;22043;50.970;7.192;2023-08-20T01:21:39;7.80;;;4.20;;
35959;SDS011;22043;50.970;7.192;2023-08-20T01:26:40;7.90;;;4.45;;
35959;SDS011;22043;50.970;7.192;2023-08-20T01:29:13;9.40;;;5.20;;
35959;SDS011;22043;50.970;7.192;2023-08-20T01:31:38;9.57;;;4.97;;
35959;SDS011;22043;50.970;7.192;2023-08-20T01:34:05;7.38;;;4.57;;
35959;SDS011;22043;50.970;7.192;2023-08-20T01:36:30;10.60;;;4.70;;
35959;SDS011;22043;50.970;7.192;2023-08-20T01:38:56;8.40;;;5.30;;
35959;SDS011;22043;50.970;7.192;2023-08-20T01:41:22;10.60;;;4.53;;
35959;SDS011;22043;50.970;7.192;2023-08-20T01:43:47;8.82;;;4.72;;
35959;SDS011;22043;50.970;7.192;2023-08-20T01:46:13;8.43;;;4.57;;
35959;SDS011;22043;50.970;7.192;2023-08-20T01:48:39;9.18;;;4.53;;
35959;SDS011;22043;50.970;7.192;2023-08-20T01:51:04;9.57;;;4.97;;
35959;SDS011;22043;50.970;7.192;2023-08-20T01:53:30;9.02;;;4.32;;
35959;SDS011;22043;50.970;7.192;2023-08-20T01:55:55;7.40;;;4.35;;
35959;SDS011;22043;50.970;7.192;2023-08-20T01:58:20;7.03;;;4.40;;
35959;SDS011;22043;50.970;7.192;2023-08-20T02:00:46;7.70;;;4.43;;
35959;SDS011;22043;50.970;7.192;2023-08-20T02:03:12;9.52;;;5.20;;
35959;SDS011;22043;50.970;7.192;2023-08-20T02:05:38;9.05;;;4.68;;
35959;SDS011;22043;50.970;7.192;2023-08-20T02:08:07;9.10;;;4.03;;
35959;SDS011;22043;50.970;7.192;2023-08-20T02:10:33;7.32;;;4.45;;
35959;SDS011;22043;50.970;7.192;2023-08-20T02:12:58;9.30;;;4.88;;
35959;SDS011;22043;50.970;7.192;2023-08-20T02:15:24;9.35;;;4.38;;
35959;SDS011;22043;50.970;7.192;2023-08-20T02:17:49;9.73;;;4.35;;
35959;SDS011;22043;50.970;7.192;2023-08-20T02:20:15;9.52;;;5.00;;
35959;SDS011;22043;50.970;7.192;2023-08-20T02:22:40;8.32;;;5.32;;
35959;SDS011;22043;50.970;7.192;2023-08-20T02:25:07;9.45;;;5.35;;
35959;SDS011;22043;50.970;7.192;2023-08-20T02:27:33;11.85;;;5.57;;
35959;SDS011;22043;50.970;7.192;2023-08-20T02:29:58;7.90;;;4.80;;
35959;SDS011;22043;50.970;7.192;2023-08-20T02:32:24;9.13;;;5.13;;
35959;SDS011;22043;50.970;7.192;2023-08-20T02:34:50;9.02;;;4.65;;
35959;SDS011;22043;50.970;7.192;2023-08-20T02:37:16;9.00;;;4.88;;
35959;SDS011;22043;50.970;7.192;2023-08-20T02:39:41;7.82;;;4.45;;
35959;SDS011;22043;50.970;7.192;2023-08-20T02:42:07;8.27;;;4.60;;
35959;SDS011;22043;50.970;7.192;2023-08-20T02:44:33;8.73;;;4.68;;
35959;SDS011;22043;50.970;7.192;2023-08-20T02:46:59;9.35;;;5.35;;
35959;SDS011;22043;50.970;7.192;2023-08-20T02:49:24;9.15;;;4.88;;
35959;SDS011;22043;50.970;7.192;2023-08-20T02:51:50;15.00;;;5.28;;
35959;SDS011;22043;50.970;7.192;2023-08-20T02:54:15;11.05;;;5.35;;
35959;SDS011;22043;50.970;7.192;2023-08-20T02:56:41;7.18;;;4.50;;
35959;SDS011;22043;50.970;7.192;2023-08-20T02:59:06;9.38;;;4.80;;
35959;SDS011;22043;50.970;7.192;2023-08-20T03:01:32;9.32;;;5.45;;
35959;SDS011;22043;50.970;7.192;2023-08-20T03:03:57;9.90;;;4.82;;
35959;SDS011;22043;50.970;7.192;2023-08-20T03:06:23;6.80;;;4.50;;
35959;SDS011;22043;50.970;7.192;2023-08-20T03:08:48;9.10;;;5.28;;
35959;SDS011;22043;50.970;7.192;2023-08-20T03:11:14;9.02;;;5.45;;
35959;SDS011;22043;50.970;7.192;2023-08-20T03:13:39;8.40;;;4.30;;
35959;SDS011;22043;50.970;7.192;2023-08-20T03:16:04;12.70;;;4.70;;
35959;SDS011;22043;50.970;7.192;2023-08-20T03:18:30;7.75;;;3.92;;
35959;SDS011;22043;50.970;7.192;2023-08-20T03:20:55;6.88;;;4.15;;
35959;SDS011;22043;50.970;7.192;2023-08-20T03:23:21;8.57;;;4.47;;
35959;SDS011;22043;50.970;7.192;2023-08-20T03:25:47;8.48;;;3.85;;
35959;SDS011;22043;50.970;7.192;2023-08-20T03:28:12;7.35;;;4.25;;
35959;SDS011;22043;50.970;7.192;2023-08-20T03:30:38;8.73;;;4.03;;
35959;SDS011;22043;50.970;7.192;2023-08-20T03:33:04;8.32;;;3.50;;
35959;SDS011;22043;50.970;7.192;2023-08-20T03:35:33;7.45;;;4.03;;
35959;SDS011;22043;50.970;7.192;2023-08-20T03:38:00;8.40;;;3.60;;
35959;SDS011;22043;50.970;7.192;2023-08-20T03:40:27;5.80;;;3.60;;
35959;SDS011;22043;50.970;7.192;2023-08-20T03:42:54;10.40;;;4.03;;
35959;SDS011;22043;50.970;7.192;2023-08-20T03:45:19;6.50;;;3.88;;
35959;SDS011;22043;50.970;7.192;2023-08-20T03:47:45;6.93;;;3.97;;
35959;SDS011;22043;50.970;7.192;2023-08-20T03:50:12;7.72;;;4.15;;
35959;SDS011;22043;50.970;7.192;2023-08-20T03:52:38;9.13;;;4.00;;
35959;SDS011;22043;50.970;7.192;2023-08-20T03:55:05;8.68;;;4.35;;
35959;SDS011;22043;50.970;7.192;2023-08-20T03:57:32;6.03;;;4.00;;
35959;SDS011;22043;50.970;7.192;2023-08-20T03:59:57;8.05;;;4.20;;
35959;SDS011;22043;50.970;7.192;2023-08-20T04:02:23;5.40;;;3.50;;
35959;SDS011;22043;50.970;7.192;2023-08-20T04:04:49;8.73;;;4.25;;
35959;SDS011;22043;50.970;7.192;2023-08-20T04:07:14;9.00;;;3.90;;
35959;SDS011;22043;50.970;7.192;2023-08-20T04:09:39;7.53;;;4.15;;
35959;SDS011;22043;50.970;7.192;2023-08-20T04:12:06;9.77;;;4.70;;
35959;SDS011;22043;50.970;7.192;2023-08-20T04:14:32;7.35;;;4.25;;
35959;SDS011;22043;50.970;7.192;2023-08-20T04:16:57;7.30;;;4.32;;
35959;SDS011;22043;50.970;7.192;2023-08-20T04:19:23;9.98;;;4.13;;
35959;SDS011;22043;50.970;7.192;2023-08-20T04:21:48;8.02;;;4.18;;
35959;SDS011;22043;50.970;7.192;2023-08-20T04:24:15;7.60;;;5.03;;
35959;SDS011;22043;50.970;7.192;2023-08-20T04:26:40;8.30;;;4.22;;
35959;SDS011;22043;50.970;7.192;2023-08-20T04:29:06;8.52;;;4.32;;
35959;SDS011;22043;50.970;7.192;2023-08-20T04:31:32;7.90;;;5.15;;
35959;SDS011;22043;50.970;7.192;2023-08-20T04:34:02;9.73;;;4.95;;
35959;SDS011;22043;50.970;7.192;2023-08-20T04:36:55;8.98;;;4.43;;
35959;SDS011;22043;50.970;7.192;2023-08-20T04:39:20;7.88;;;4.57;;
35959;SDS011;22043;50.970;7.192;2023-08-20T04:41:51;8.05;;;4.65;;
35959;SDS011;22043;50.970;7.192;2023-08-20T04:44:18;8.13;;;4.22;;
35959;SDS011;22043;50.970;7.192;2023-08-20T04:46:45;7.17;;;4.63;;
35959;SDS011;22043;50.970;7.192;2023-08-20T04:49:11;7.78;;;4.65;;
35959;SDS011;22043;50.970;7.192;2023-08-20T04:51:39;7.97;;;4.65;;
35959;SDS011;22043;50.970;7.192;2023-08-20T04:54:05;8.23;;;5.07;;
35959;SDS011;22043;50.970;7.192;2023-08-20T04:56:31;8.75;;;4.82;;
35959;SDS011;22043;50.970;7.192;2023-08-20T04:58:58;12.40;;;4.82;;
35959;SDS011;22043;50.970;7.192;2023-08-20T05:01:42;9.25;;;4.55;;
35959;SDS011;22043;50.970;7.192;2023-08-20T05:04:08;7.40;;;4.50;;
35959;SDS011;22043;50.970;7.192;2023-08-20T05:06:34;7.63;;;4.68;;
35959;SDS011;22043;50.970;7.192;2023-08-20T05:08:59;9.13;;;4.57;;
35959;SDS011;22043;50.970;7.192;2023-08-20T05:11:25;11.05;;;5.15;;
35959;SDS011;22043;50.970;7.192;2023-08-20T05:13:51;9.23;;;4.68;;
35959;SDS011;22043;50.970;7.192;2023-08-20T05:16:16;8.15;;;4.50;;
35959;SDS011;22043;50.970;7.192;2023-08-20T05:18:42;7.97;;;4.50;;
35959;SDS011;22043;50.970;7.192;2023-08-20T05:21:09;8.65;;;5.13;;
35959;SDS011;22043;50.970;7.192;2023-08-20T05:23:38;9.13;;;4.85;;
35959;SDS011;22043;50.970;7.192;2023-08-20T05:26:06;9.32;;;4.70;;
35959;SDS011;22043;50.970;7.192;2023-08-20T05:28:33;8.32;;;5.15;;
35959;SDS011;22043;50.970;7.192;2023-08-20T05:30:59;10.68;;;5.85;;
35959;SDS011;22043;50.970;7.192;2023-08-20T05:33:24;8.90;;;5.05;;
35959;SDS011;22043;50.970;7.192;2023-08-20T05:35:50;10.63;;;5.05;;
35959;SDS011;22043;50.970;7.192;2023-08-20T05:38:16;10.93;;;6.32;;
35959;SDS011;22043;50.970;7.192;2023-08-20T05:40:43;9.70;;;5.38;;
35959;SDS011;22043;50.970;7.192;2023-08-20T05:43:10;10.30;;;5.90;;
35959;SDS011;22043;50.970;7.192;2023-08-20T05:45:36;10.63;;;5.55;;
35959;SDS011;22043;50.970;7.192;2023-08-20T05:48:02;8.90;;;5.25;;
35959;SDS011;22043;50.970;7.192;2023-08-20T05:50:27;11.80;;;6.35;;
35959;SDS011;22043;50.970;7.192;2023-08-20T05:52:53;10.70;;;6.03;;
35959;SDS011;22043;50.970;7.192;2023-08-20T05:55:20;10.32;;;5.03;;
35959;SDS011;22043;50.970;7.192;2023-08-20T05:57:46;9.98;;;6.63;;
35959;SDS011;22043;50.970;7.192;2023-08-20T06:00:12;9.55;;;5.75;;
35959;SDS011;22043;50.970;7.192;2023-08-20T06:02:38;9.43;;;5.97;;
35959;SDS011;22043;50.970;7.192;2023-08-20T06:05:05;11.40;;;6.25;;
35959;SDS011;22043;50.970;7.192;2023-08-20T06:07:31;10.88;;;5.75;;
35959;SDS011;22043;50.970;7.192;2023-08-20T06:09:57;9.60;;;5.90;;
35959;SDS011;22043;50.970;7.192;2023-08-20T06:12:23;10.40;;;5.90;;
35959;SDS011;22043;50.970;7.192;2023-08-20T06:14:50;9.85;;;6.10;;
35959;SDS011;22043;50.970;7.192;2023-08-20T06:17:17;10.15;;;5.60;;
35959;SDS011;22043;50.970;7.192;2023-08-20T06:19:44;11.70;;;5.28;;
35959;SDS011;22043;50.970;7.192;2023-08-20T06:22:10;8.80;;;5.43;;
35959;SDS011;22043;50.970;7.192;2023-08-20T06:24:36;9.55;;;4.97;;
35959;SDS011;22043;50.970;7.192;2023-08-20T06:27:02;12.77;;;6.72;;
35959;SDS011;22043;50.970;7.192;2023-08-20T06:29:28;10.00;;;5.80;;
35959;SDS011;22043;50.970;7.192;2023-08-20T06:31:54;10.00;;;6.25;;
35959;SDS011;22043;50.970;7.192;2023-08-20T06:34:20;9.77;;;5.75;;
35959;SDS011;22043;50.970;7.192;2023-08-20T06:36:45;9.05;;;5.25;;
35959;SDS011;22043;50.970;7.192;2023-08-20T06:39:10;11.63;;;5.10;;
35959;SDS011;22043;50.970;7.192;2023-08-20T06:41:36;10.50;;;5.18;;
35959;SDS011;22043;50.970;7.192;2023-08-20T06:44:02;11.20;;;5.43;;
35959;SDS011;22043;50.970;7.192;2023-08-20T06:46:28;8.32;;;5.68;;
35959;SDS011;22043;50.970;7.192;2023-08-20T06:48:53;11.10;;;5.53;;
35959;SDS011;22043;50.970;7.192;2023-08-20T06:51:19;9.30;;;5.13;;
35959;SDS011;22043;50.970;7.192;2023-08-20T06:53:50;8.75;;;5.15;;
35959;SDS011;22043;50.970;7.192;2023-08-20T06:56:16;7.72;;;4.50;;
35959;SDS011;22043;50.970;7.192;2023-08-20T06:58:41;8.68;;;4.70;;
35959;SDS011;22043;50.970;7.192;2023-08-20T07:01:07;7.85;;;4.90;;
35959;SDS011;22043;50.970;7.192;2023-08-20T07:03:37;8.00;;;4.90;;
35959;SDS011;22043;50.970;7.192;2023-08-20T07:06:07;9.77;;;5.07;;
35959;SDS011;22043;50.970;7.192;2023-08-20T07:08:34;8.88;;;5.68;;
35959;SDS011;22043;50.970;7.192;2023-08-20T07:11:00;10.25;;;4.80;;
35959;SDS011;22043;50.970;7.192;2023-08-20T07:13:25;9.30;;;4.72;;
35959;SDS011;22043;50.970;7.192;2023-08-20T07:15:51;10.77;;;5.53;;
35959;SDS011;22043;50.970;7.192;2023-08-20T07:18:17;8.38;;;5.20;;
35959;SDS011;22043;50.970;7.192;2023-08-20T07:20:44;8.02;;;5.05;;
35959;SDS011;22043;50.970;7.192;2023-08-20T07:23:11;7.38;;;4.18;;
35959;SDS011;22043;50.970;7.192;2023-08-20T07:25:37;9.15;;;5.28;;
35959;SDS011;22043;50.970;7.192;2023-08-20T07:28:04;8.95;;;4.43;;
35959;SDS011;22043;50.970;7.192;2023-08-20T07:30:30;9.55;;;4.75;;
35959;SDS011;22043;50.970;7.192;2023-08-20T07:32:55;8.10;;;4.85;;
35959;SDS011;22043;50.970;7.192;2023-08-20T07:35:23;9.20;;;4.33;;
35959;SDS011;22043;50.970;7.192;2023-08-20T07:37:49;8.70;;;4.55;;
35959;SDS011;22043;50.970;7.192;2023-08-20T07:40:15;6.57;;;4.07;;
35959;SDS011;22043;50.970;7.192;2023-08-20T07:42:42;7.13;;;4.20;;
35959;SDS011;22043;50.970;7.192;2023-08-20T07:45:08;7.53;;;4.20;;
35959;SDS011;22043;50.970;7.192;2023-08-20T07:47:37;7.82;;;4.32;;
35959;SDS011;22043;50.970;7.192;2023-08-20T07:50:03;7.00;;;3.97;;
35959;SDS011;22043;50.970;7.192;2023-08-20T07:52:30;6.68;;;3.88;;
35959;SDS011;22043;50.970;7.192;2023-08-20T07:54:56;11.60;;;4.35;;
35959;SDS011;22043;50.970;7.192;2023-08-20T07:57:21;6.95;;;4.15;;
35959;SDS011;22043;50.970;7.192;2023-08-20T07:59:48;4.43;;;3.05;;
35959;SDS011;22043;50.970;7.192;2023-08-20T08:02:14;6.15;;;3.20;;
35959;SDS011;22043;50.970;7.192;2023-08-20T08:04:40;5.95;;;2.92;;
35959;SDS011;22043;50.970;7.192;2023-08-20T08:07:05;7.18;;;4.15;;
35959;SDS011;22043;50.970;7.192;2023-08-20T08:09:31;5.45;;;3.05;;
35959;SDS011;22043;50.970;7.192;2023-08-20T08:11:58;6.78;;;3.30;;
35959;SDS011;22043;50.970;7.192;2023-08-20T08:14:24;7.93;;;3.67;;
35959;SDS011;22043;50.970;7.192;2023-08-20T08:16:50;4.97;;;2.75;;
35959;SDS011;22043;50.970;7.192;2023-08-20T08:19:16;5.82;;;3.15;;
35959;SDS011;22043;50.970;7.192;2023-08-20T08:21:42;6.75;;;3.50;;
35959;SDS011;22043;50.970;7.192;2023-08-20T08:24:08;6.28;;;3.35;;
35959;SDS011;22043;50.970;7.192;2023-08-20T08:26:34;7.38;;;2.70;;
35959;SDS011;22043;50.970;7.192;2023-08-20T08:29:01;4.15;;;2.72;;
35959;SDS011;22043;50.970;7.192;2023-08-20T08:31:27;3.70;;;2.25;;
35959;SDS011;22043;50.970;7.192;2023-08-20T08:33:52;6.85;;;2.60;;
35959;SDS011;22043;50.970;7.192;2023-08-20T08:36:17;6.28;;;2.30;;
35959;SDS011;22043;50.970;7.192;2023-08-20T08:38:43;4.40;;;2.58;;
35959;SDS011;22043;50.970;7.192;2023-08-20T08:41:13;6.43;;;2.90;;
35959;SDS011;22043;50.970;7.192;2023-08-20T08:43:39;6.03;;;3.40;;
35959;SDS011;22043;50.970;7.192;2023-08-20T08:46:14;6.95;;;3.30;;
35959;SDS011;22043;50.970;7.192;2023-08-20T08:48:40;6.18;;;3.17;;
35959;SDS011;22043;50.970;7.192;2023-08-20T08:51:07;7.15;;;3.95;;
35959;SDS011;22043;50.970;7.192;2023-08-20T08:53:33;9.18;;;3.80;;
35959;SDS011;22043;50.970;7.192;2023-08-20T08:55:59;5.65;;;3.22;;
35959;SDS011;22043;50.970;7.192;2023-08-20T08:58:25;7.47;;;3.58;;
35959;SDS011;22043;50.970;7.192;2023-08-20T09:00:50;7.65;;;3.08;;
35959;SDS011;22043;50.970;7.192;2023-08-20T09:03:15;6.40;;;3.70;;
35959;SDS011;22043;50.970;7.192;2023-08-20T09:05:48;6.43;;;3.90;;
35959;SDS011;22043;50.970;7.192;2023-08-20T09:08:19;7.57;;;3.90;;
35959;SDS011;22043;50.970;7.192;2023-08-20T09:10:45;11.13;;;4.82;;
35959;SDS011;22043;50.970;7.192;2023-08-20T09:13:10;8.95;;;5.15;;
35959;SDS011;22043;50.970;7.192;2023-08-20T09:15:37;8.20;;;5.07;;
35959;SDS011;22043;50.970;7.192;2023-08-20T09:18:02;6.60;;;3.88;;
35959;SDS011;22043;50.970;7.192;2023-08-20T09:20:38;9.43;;;4.85;;
35959;SDS011;22043;50.970;7.192;2023-08-20T09:23:04;8.65;;;4.60;;
35959;SDS011;22043;50.970;7.192;2023-08-20T09:25:36;6.63;;;3.65;;
35959;SDS011;22043;50.970;7.192;2023-08-20T09:28:02;6.93;;;4.35;;
35959;SDS011;22043;50.970;7.192;2023-08-20T09:30:28;9.27;;;4.27;;
35959;SDS011;22043;50.970;7.192;2023-08-20T09:33:10;6.05;;;3.92;;
35959;SDS011;22043;50.970;7.192;2023-08-20T09:35:38;6.93;;;3.88;;
35959;SDS011;22043;50.970;7.192;2023-08-20T09:38:14;6.75;;;4.05;;
35959;SDS011;22043;50.970;7.192;2023-08-20T09:40:40;6.90;;;4.35;;
35959;SDS011;22043;50.970;7.192;2023-08-20T09:43:06;7.00;;;4.13;;
35959;SDS011;22043;50.970;7.192;2023-08-20T09:45:33;6.45;;;3.58;;
35959;SDS011;22043;50.970;7.192;2023-08-20T09:47:59;7.38;;;4.07;;
35959;SDS011;22043;50.970;7.192;2023-08-20T09:50:28;8.27;;;4.38;;
35959;SDS011;22043;50.970;7.192;2023-08-20T09:52:58;8.55;;;4.25;;
35959;SDS011;22043;50.970;7.192;2023-08-20T09:55:28;6.30;;;3.88;;
35959;SDS011;22043;50.970;7.192;2023-08-20T09:57:55;8.65;;;4.18;;
35959;SDS011;22043;50.970;7.192;2023-08-20T10:00:21;7.25;;;4.22;;
35959;SDS011;22043;50.970;7.192;2023-08-20T10:02:47;8.50;;;4.63;;
35959;SDS011;22043;50.970;7.192;2023-08-20T10:05:13;8.57;;;3.97;;
35959;SDS011;22043;50.970;7.192;2023-08-20T10:07:40;7.30;;;3.50;;
35959;SDS011;22043;50.970;7.192;2023-08-20T10:10:08;7.88;;;4.68;;
35959;SDS011;22043;50.970;7.192;2023-08-20T10:12:36;6.95;;;3.90;;
35959;SDS011;22043;50.970;7.192;2023-08-20T10:15:04;7.65;;;3.85;;
35959;SDS011;22043;50.970;7.192;2023-08-20T10:17:30;6.70;;;4.00;;
35959;SDS011;22043;50.970;7.192;2023-08-20T10:19:58;7.63;;;4.57;;
35959;SDS011;22043;50.970;7.192;2023-08-20T10:22:31;8.43;;;3.83;;
35959;SDS011;22043;50.970;7.192;2023-08-20T10:25:00;6.07;;;3.67;;
35959;SDS011;22043;50.970;7.192;2023-08-20T10:27:31;12.15;;;4.15;;
35959;SDS011;22043;50.970;7.192;2023-08-20T10:30:00;7.47;;;4.28;;
35959;SDS011;22043;50.970;7.192;2023-08-20T10:35:26;7.57;;;4.57;;
35959;SDS011;22043;50.970;7.192;2023-08-20T10:38:02;6.82;;;4.45;;
35959;SDS011;22043;50.970;7.192;2023-08-20T10:49:02;9.30;;;6.80;;
35959;SDS011;22043;50.970;7.192;2023-08-20T10:51:33;10.90;;;6.07;;
35959;SDS011;22043;50.970;7.192;2023-08-20T10:56:54;9.85;;;6.18;;
35959;SDS011;22043;50.970;7.192;2023-08-20T10:59:29;12.90;;;6.18;;
35959;SDS011;22043;50.970;7.192;2023-08-20T11:01:56;9.98;;;6.07;;
35959;SDS011;22043;50.970;7.192;2023-08-20T11:04:27;12.60;;;6.80;;
35959;SDS011;22043;50.970;7.192;2023-08-20T11:06:54;10.98;;;6.55;;
35959;SDS011;22043;50.970;7.192;2023-08-20T11:09:26;11.35;;;6.35;;
35959;SDS011;22043;50.970;7.192;2023-08-20T11:11:52;11.73;;;6.72;;
35959;SDS011;22043;50.970;7.192;2023-08-20T11:14:19;11.05;;;6.40;;
35959;SDS011;22043;50.970;7.192;2023-08-20T11:16:45;12.57;;;7.30;;
35959;SDS011;22043;50.970;7.192;2023-08-20T11:19:12;12.00;;;7.13;;
35959;SDS011;22043;50.970;7.192;2023-08-20T11:21:38;12.43;;;7.25;;
35959;SDS011;22043;50.970;7.192;2023-08-20T11:24:05;12.10;;;6.80;;
35959;SDS011;22043;50.970;7.192;2023-08-20T11:26:32;12.85;;;7.53;;
35959;SDS011;22043;50.970;7.192;2023-08-20T11:28:57;10.73;;;6.75;;
35959;SDS011;22043;50.970;7.192;2023-08-20T11:31:23;12.00;;;6.30;;
35959;SDS011;22043;50.970;7.192;2023-08-20T11:33:51;10.55;;;6.63;;
35959;SDS011;22043;50.970;7.192;2023-08-20T11:36:20;10.90;;;6.35;;
35959;SDS011;22043;50.970;7.192;2023-08-20T11:38:52;12.55;;;6.40;;
35959;SDS011;22043;50.970;7.192;2023-08-20T11:41:18;13.02;;;6.75;;
35959;SDS011;22043;50.970;7.192;2023-08-20T11:43:45;12.57;;;6.50;;
35959;SDS011;22043;50.970;7.192;2023-08-20T11:46:14;10.63;;;6.60;;
35959;SDS011;22043;50.970;7.192;2023-08-20T11:51:25;11.82;;;7.20;;
35959;SDS011;22043;50.970;7.192;2023-08-20T11:53:51;12.25;;;7.05;;
35959;SDS011;22043;50.970;7.192;2023-08-20T11:56:16;10.55;;;6.18;;
35959;SDS011;22043;50.970;7.192;2023-08-20T11:58:42;11.07;;;6.28;;
35959;SDS011;22043;50.970;7.192;2023-08-20T12:01:07;11.73;;;6.63;;
35959;SDS011;22043;50.970;7.192;2023-08-20T12:03:34;13.10;;;6.80;;
35959;SDS011;22043;50.970;7.192;2023-08-20T12:05:59;11.80;;;6.55;;
35959;SDS011;22043;50.970;7.192;2023-08-20T12:08:45;11.73;;;5.75;;
35959;SDS011;22043;50.970;7.192;2023-08-20T12:11:10;13.85;;;6.72;;
35959;SDS011;22043;50.970;7.192;2023-08-20T12:13:36;10.07;;;5.80;;
35959;SDS011;22043;50.970;7.192;2023-08-20T12:16:01;11.73;;;6.32;;
35959;SDS011;22043;50.970;7.192;2023-08-20T12:18:27;10.57;;;6.20;;
35959;SDS011;22043;50.970;7.192;2023-08-20T12:20:52;12.35;;;6.20;;
35959;SDS011;22043;50.970;7.192;2023-08-20T12:23:18;10.75;;;6.38;;
35959;SDS011;22043;50.970;7.192;2023-08-20T12:25:49;11.43;;;6.72;;
35959;SDS011;22043;50.970;7.192;2023-08-20T12:28:15;10.32;;;5.70;;
35959;SDS011;22043;50.970;7.192;2023-08-20T12:30:41;9.07;;;5.38;;
35959;SDS011;22043;50.970;7.192;2023-08-20T12:33:06;10.18;;;5.75;;
35959;SDS011;22043;50.970;7.192;2023-08-20T12:35:32;9.80;;;5.30;;
35959;SDS011;22043;50.970;7.192;2023-08-20T12:37:57;9.80;;;5.32;;
35959;SDS011;22043;50.970;7.192;2023-08-20T12:40:23;9.25;;;4.53;;
35959;SDS011;22043;50.970;7.192;2023-08-20T12:42:48;10.13;;;5.50;;
35959;SDS011;22043;50.970;7.192;2023-08-20T12:45:15;8.32;;;4.57;;
35959;SDS011;22043;50.970;7.192;2023-08-20T12:47:41;8.05;;;4.75;;
35959;SDS011;22043;50.970;7.192;2023-08-20T12:50:07;10.68;;;5.18;;
35959;SDS011;22043;50.970;7.192;2023-08-20T12:52:33;8.57;;;4.70;;
35959;SDS011;22043;50.970;7.192;2023-08-20T12:54:59;9.93;;;5.45;;
35959;SDS011;22043;50.970;7.192;2023-08-20T12:57:27;10.60;;;5.22;;
35959;SDS011;22043;50.970;7.192;2023-08-20T12:59:53;7.82;;;5.00;;
35959;SDS011;22043;50.970;7.192;2023-08-20T13:02:19;7.95;;;5.38;;
35959;SDS011;22043;50.970;7.192;2023-08-20T13:04:46;6.90;;;5.00;;
35959;SDS011;22043;50.970;7.192;2023-08-20T13:07:12;8.95;;;4.90;;
35959;SDS011;22043;50.970;7.192;2023-08-20T13:09:38;12.73;;;6.20;;
35959;SDS011;22043;50.970;7.192;2023-08-20T13:12:04;9.32;;;5.15;;
35959;SDS011;22043;50.970;7.192;2023-08-20T13:14:34;9.52;;;5.05;;
35959;SDS011;22043;50.970;7.192;2023-08-20T13:17:00;7.93;;;4.55;;
35959;SDS011;22043;50.970;7.192;2023-08-20T13:19:26;9.38;;;4.82;;
35959;SDS011;22043;50.970;7.192;2023-08-20T13:21:51;7.82;;;4.45;;
35959;SDS011;22043;50.970;7.192;2023-08-20T13:24:16;9.38;;;5.07;;
35959;SDS011;22043;50.970;7.192;2023-08-20T13:26:42;8.27;;;4.88;;
35959;SDS011;22043;50.970;7.192;2023-08-20T13:29:07;10.20;;;5.00;;
35959;SDS011;22043;50.970;7.192;2023-08-20T13:31:33;9.48;;;4.63;;
35959;SDS011;22043;50.970;7.192;2023-08-20T13:34:00;7.35;;;4.35;;
35959;SDS011;22043;50.970;7.192;2023-08-20T13:36:28;8.45;;;5.15;;
35959;SDS011;22043;50.970;7.192;2023-08-20T13:38:55;8.10;;;5.10;;
35959;SDS011;22043;50.970;7.192;2023-08-20T13:41:21;7.45;;;4.40;;
35959;SDS011;22043;50.970;7.192;2023-08-20T13:43:46;7.78;;;4.75;;
35959;SDS011;22043;50.970;7.192;2023-08-20T13:46:12;7.65;;;4.72;;
35959;SDS011;22043;50.970;7.192;2023-08-20T13:48:37;9.32;;;5.60;;
35959;SDS011;22043;50.970;7.192;2023-08-20T13:51:03;10.35;;;5.07;;
35959;SDS011;22043;50.970;7.192;2023-08-20T13:53:28;9.30;;;4.68;;
35959;SDS011;22043;50.970;7.192;2023-08-20T13:55:55;11.15;;;5.53;;
35959;SDS011;22043;50.970;7.192;2023-08-20T13:58:20;9.20;;;4.72;;
35959;SDS011;22043;50.970;7.192;2023-08-20T14:00:46;7.53;;;4.45;;
35959;SDS011;22043;50.970;7.192;2023-08-20T14:03:11;7.75;;;4.97;;
35959;SDS011;22043;50.970;7.192;2023-08-20T14:05:37;7.00;;;4.78;;
35959;SDS011;22043;50.970;7.192;2023-08-20T14:08:03;7.30;;;4.60;;
35959;SDS011;22043;50.970;7.192;2023-08-20T14:10:29;8.63;;;5.60;;
35959;SDS011;22043;50.970;7.192;2023-08-20T14:12:55;9.95;;;6.68;;
35959;SDS011;22043;50.970;7.192;2023-08-20T14:15:23;8.45;;;5.30;;
35959;SDS011;22043;50.970;7.192;2023-08-20T14:17:51;9.30;;;5.80;;
35959;SDS011;22043;50.970;7.192;2023-08-20T14:20:17;9.00;;;6.03;;
35959;SDS011;22043;50.970;7.192;2023-08-20T14:22:43;10.85;;;6.05;;
35959;SDS011;22043;50.970;7.192;2023-08-20T14:25:08;7.68;;;5.38;;
35959;SDS011;22043;50.970;7.192;2023-08-20T14:27:34;10.05;;;5.32;;
35959;SDS011;22043;50.970;7.192;2023-08-20T14:30:00;9.32;;;4.97;;
35959;SDS011;22043;50.970;7.192;2023-08-20T14:32:25;7.93;;;5.50;;
35959;SDS011;22043;50.970;7.192;2023-08-20T14:34:50;8.75;;;5.65;;
35959;SDS011;22043;50.970;7.192;2023-08-20T14:37:16;11.82;;;5.88;;
35959;SDS011;22043;50.970;7.192;2023-08-20T14:39:41;8.75;;;5.97;;
35959;SDS011;22043;50.970;7.192;2023-08-20T14:42:07;9.02;;;5.43;;
35959;SDS011;22043;50.970;7.192;2023-08-20T14:44:36;9.43;;;6.30;;
35959;SDS011;22043;50.970;7.192;2023-08-20T14:47:01;10.15;;;5.75;;
35959;SDS011;22043;50.970;7.192;2023-08-20T14:49:29;8.13;;;5.53;;
35959;SDS011;22043;50.970;7.192;2023-08-20T14:51:55;8.75;;;5.97;;
35959;SDS011;22043;50.970;7.192;2023-08-20T14:54:20;9.05;;;6.10;;
35959;SDS011;22043;50.970;7.192;2023-08-20T14:56:45;8.25;;;5.47;;
35959;SDS011;22043;50.970;7.192;2023-08-20T14:59:11;7.68;;;5.05;;
35959;SDS011;22043;50.970;7.192;2023-08-20T15:01:36;8.77;;;5.95;;
35959;SDS011;22043;50.970;7.192;2023-08-20T15:04:02;8.20;;;5.72;;